Time;durP1;ratioP1;P1;durP2;ratioP2;P2;SDS_P1;SDS_P2;PMS_P1;PMS_P2;Temp;Humidity;BMP_temperature;BMP_pressure;BME280_temperature;BME280_humidity;BME280_pressure;Samples;Min_cycle;Max_cycle;Signal;HPM_P1;HPM_P2
2023/05/04 00:00:11;;;;;;;10.87;6.37;;;;;;;9.94;100.00;96722.78;5049459;28;20035;-79
2023/05/04 00:02:37;;;;;;;9.57;5.97;;;;;;;9.83;100.00;96718.53;5050482;28;20028;-80
2023/05/04 00:05:04;;;;;;;12.57;7.03;;;;;;;9.88;100.00;96718.91;5068415;28;20097;-80
2023/05/04 00:07:30;;;;;;;15.03;7.00;;;;;;;9.85;100.00;96709.50;5054981;28;20036;-80
2023/05/04 00:09:56;;;;;;;11.37;6.30;;;;;;;10.00;100.00;96714.31;5069690;28;20794;-80
2023/05/04 00:12:22;;;;;;;10.80;6.43;;;;;;;9.77;100.00;96704.16;5067070;28;20121;-80
2023/05/04 00:15:11;;;;;;;11.00;5.80;;;;;;;9.79;100.00;96704.00;5048267;28;20280;-79
2023/05/04 00:17:36;;;;;;;14.57;7.17;;;;;;;9.49;100.00;96708.50;5034695;28;20039;-80
2023/05/04 00:20:02;;;;;;;9.93;6.63;;;;;;;9.74;100.00;96700.97;5065934;28;20032;-80
2023/05/04 00:22:30;;;;;;;10.73;6.70;;;;;;;9.86;100.00;96699.84;5048379;28;20044;-80
2023/05/04 00:24:56;;;;;;;8.77;6.20;;;;;;;9.70;100.00;96699.63;5067488;28;20835;-79
2023/05/04 00:27:21;;;;;;;12.73;6.70;;;;;;;9.57;100.00;96705.16;5067336;28;20035;-80
2023/05/04 00:29:47;;;;;;;10.33;6.20;;;;;;;9.66;100.00;96694.66;5067682;28;20028;-80
2023/05/04 00:32:12;;;;;;;10.87;7.03;;;;;;;9.57;100.00;96700.75;5066254;28;20043;-79
2023/05/04 00:34:38;;;;;;;10.57;6.63;;;;;;;9.32;100.00;96696.94;5064426;28;20047;-80
2023/05/04 00:37:23;;;;;;;10.00;6.47;;;;;;;9.25;100.00;96698.44;5071638;28;20183;-80
2023/05/04 00:39:49;;;;;;;11.13;7.40;;;;;;;9.41;100.00;96696.06;5063290;28;20496;-80
2023/05/04 00:42:15;;;;;;;10.60;6.20;;;;;;;9.42;100.00;96702.13;5066586;28;20035;-79
2023/05/04 00:44:43;;;;;;;10.20;6.73;;;;;;;9.51;100.00;96700.47;5062918;28;20405;-80
2023/05/04 00:47:11;;;;;;;10.87;6.40;;;;;;;9.50;100.00;96694.41;5050743;28;20067;-80
2023/05/04 00:49:37;;;;;;;9.37;6.77;;;;;;;9.45;100.00;96701.84;5048515;28;20066;-79
2023/05/04 00:52:04;;;;;;;11.27;6.60;;;;;;;9.56;100.00;96695.66;5060579;28;20059;-79
2023/05/04 00:54:33;;;;;;;10.13;6.30;;;;;;;9.40;100.00;96698.84;5067125;28;20462;-79
2023/05/04 00:56:58;;;;;;;10.53;7.10;;;;;;;9.44;100.00;96689.72;5048109;28;20027;-80
2023/05/04 00:59:24;;;;;;;9.20;6.00;;;;;;;9.39;100.00;96698.03;5063932;28;20029;-80
2023/05/04 01:01:49;;;;;;;10.13;6.47;;;;;;;9.38;100.00;96691.09;5064181;28;20036;-79
2023/05/04 01:04:15;;;;;;;11.23;6.47;;;;;;;9.59;100.00;96690.94;5067394;28;20413;-79
2023/05/04 01:07:06;;;;;;;9.97;6.50;;;;;;;9.57;100.00;96690.25;5042465;28;20448;-80
2023/05/04 01:09:38;;;;;;;9.47;6.33;;;;;;;9.33;100.00;96684.63;5066279;28;20032;-79
2023/05/04 01:12:24;;;;;;;9.90;6.20;;;;;;;9.45;100.00;96688.72;5085112;28;20036;-79
2023/05/04 01:14:52;;;;;;;10.67;6.57;;;;;;;9.34;100.00;96684.47;5071222;28;20093;-80
2023/05/04 01:17:18;;;;;;;12.17;7.97;;;;;;;9.37;100.00;96673.69;5057127;28;20024;-79
2023/05/04 01:19:45;;;;;;;12.97;6.00;;;;;;;9.38;100.00;96670.09;5059831;28;20635;-79
2023/05/04 01:22:10;;;;;;;9.63;6.37;;;;;;;9.12;100.00;96674.25;5062862;28;20097;-79
2023/05/04 01:24:37;;;;;;;10.70;6.67;;;;;;;8.92;100.00;96676.91;5076833;28;20116;-80
2023/05/04 01:27:13;;;;;;;10.13;6.27;;;;;;;8.92;100.00;96676.06;5051628;28;20792;-80
2023/05/04 01:29:42;;;;;;;14.30;6.67;;;;;;;8.97;100.00;96682.56;5075731;28;20036;-79
2023/05/04 01:32:08;;;;;;;10.10;5.90;;;;;;;9.03;100.00;96681.19;5063311;28;20152;-80
2023/05/04 01:34:36;;;;;;;10.07;6.50;;;;;;;8.96;100.00;96680.91;5049720;28;20075;-79
2023/05/04 01:37:02;;;;;;;9.63;6.43;;;;;;;9.02;100.00;96682.16;5042656;28;20036;-80
2023/05/04 01:39:29;;;;;;;18.30;7.90;;;;;;;8.99;100.00;96685.06;5053485;28;20044;-80
2023/05/04 01:41:54;;;;;;;12.20;7.03;;;;;;;8.99;100.00;96682.44;5051744;28;20101;-79
2023/05/04 01:44:20;;;;;;;11.13;6.43;;;;;;;9.04;100.00;96679.38;5049963;28;20230;-79
2023/05/04 01:46:46;;;;;;;10.97;6.77;;;;;;;9.07;100.00;96685.19;5069433;28;20029;-79
2023/05/04 01:49:11;;;;;;;12.57;6.80;;;;;;;8.97;100.00;96684.38;5070167;28;20036;-80
2023/05/04 01:51:39;;;;;;;12.97;8.07;;;;;;;8.82;100.00;96680.47;5052401;28;20482;-80
2023/05/04 01:54:05;;;;;;;9.90;6.63;;;;;;;8.92;100.00;96689.19;5045564;28;20112;-79
2023/05/04 01:56:30;;;;;;;10.50;7.10;;;;;;;8.70;100.00;96688.50;5053292;28;20425;-80
2023/05/04 01:58:57;;;;;;;10.93;7.00;;;;;;;8.76;100.00;96686.28;5050427;28;20029;-80
2023/05/04 02:01:23;;;;;;;12.47;7.03;;;;;;;8.98;100.00;96686.00;5070431;28;20027;-80
2023/05/04 02:03:51;;;;;;;9.87;6.80;;;;;;;8.99;100.00;96695.56;5072444;28;20044;-79
2023/05/04 02:06:17;;;;;;;11.83;6.80;;;;;;;9.00;100.00;96689.34;5071712;28;20025;-80
2023/05/04 02:08:42;;;;;;;13.37;7.17;;;;;;;8.99;100.00;96687.69;5070240;28;20032;-80
2023/05/04 02:11:08;;;;;;;12.63;6.77;;;;;;;8.98;100.00;96688.63;5050991;28;20036;-80
2023/05/04 02:13:35;;;;;;;12.13;7.83;;;;;;;9.06;100.00;96695.84;5068239;28;20032;-79
2023/05/04 02:16:04;;;;;;;9.63;6.40;;;;;;;8.99;100.00;96695.56;5064855;28;20127;-80
2023/05/04 02:18:30;;;;;;;11.43;7.47;;;;;;;8.93;100.00;96685.63;5062830;28;20028;-80
2023/05/04 02:20:55;;;;;;;11.23;7.33;;;;;;;8.87;100.00;96686.16;5059563;28;20037;-80
2023/05/04 02:23:21;;;;;;;11.93;7.50;;;;;;;8.93;100.00;96690.84;5046373;28;20115;-79
2023/05/04 02:25:46;;;;;;;10.17;6.93;;;;;;;8.76;100.00;96705.47;5055790;28;20036;-80
2023/05/04 02:28:12;;;;;;;11.03;7.03;;;;;;;8.66;100.00;96697.59;5070079;28;20028;-80
2023/05/04 02:30:37;;;;;;;10.10;7.43;;;;;;;8.52;100.00;96694.53;5053296;28;20041;-80
2023/05/04 02:33:03;;;;;;;12.60;8.50;;;;;;;8.66;100.00;96699.41;5062889;28;20028;-79
2023/05/04 02:35:29;;;;;;;11.87;7.83;;;;;;;8.60;100.00;96692.06;5042978;28;20033;-80
2023/05/04 02:37:54;;;;;;;12.10;8.27;;;;;;;8.68;100.00;96687.78;5050125;28;20476;-79
2023/05/04 02:40:23;;;;;;;14.23;8.07;;;;;;;8.72;100.00;96694.44;5048846;28;20036;-79
2023/05/04 02:42:49;;;;;;;11.60;7.90;;;;;;;8.52;100.00;96690.13;5068294;28;20490;-79
2023/05/04 02:45:15;;;;;;;13.00;8.33;;;;;;;8.66;100.00;96689.72;5066652;28;20094;-79
2023/05/04 02:47:42;;;;;;;10.93;7.67;;;;;;;8.57;100.00;96689.72;5064175;28;20031;-79
2023/05/04 02:50:07;;;;;;;10.87;7.53;;;;;;;8.48;100.00;96686.09;5045528;28;20032;-79
2023/05/04 02:52:33;;;;;;;11.13;7.67;;;;;;;8.29;100.00;96686.03;5051593;28;20043;-79
2023/05/04 02:55:10;;;;;;;11.83;7.67;;;;;;;8.30;100.00;96679.84;5054158;28;20028;-80
2023/05/04 02:57:35;;;;;;;14.87;8.40;;;;;;;8.32;100.00;96675.31;5054992;28;20033;-79
2023/05/04 03:00:03;;;;;;;12.43;8.30;;;;;;;8.36;100.00;96682.75;5055077;28;20543;-80
2023/05/04 03:02:29;;;;;;;12.17;8.23;;;;;;;8.15;100.00;96674.97;5072262;28;20056;-79
2023/05/04 03:05:01;;;;;;;14.00;7.87;;;;;;;8.34;100.00;96675.97;5061160;28;20031;-79
2023/05/04 03:07:26;;;;;;;13.27;8.60;;;;;;;8.29;100.00;96672.94;5069166;28;20028;-80
2023/05/04 03:09:52;;;;;;;12.97;7.90;;;;;;;8.20;100.00;96670.16;5066130;28;20411;-79
2023/05/04 03:12:18;;;;;;;11.27;8.30;;;;;;;8.23;100.00;96669.88;5069709;28;20567;-80
2023/05/04 03:14:45;;;;;;;11.73;7.67;;;;;;;8.13;100.00;96674.25;5060897;28;20445;-79
2023/05/04 03:17:10;;;;;;;13.13;8.23;;;;;;;7.92;100.00;96673.50;5062723;28;20085;-79
2023/05/04 03:19:37;;;;;;;13.30;7.63;;;;;;;8.07;100.00;96679.22;5050878;28;20033;-86
2023/05/04 03:22:04;;;;;;;14.53;8.20;;;;;;;8.07;100.00;96677.41;5051558;28;20088;-82
2023/05/04 03:24:29;;;;;;;12.37;8.47;;;;;;;8.17;100.00;96672.22;5054469;28;21731;-83
2023/05/04 03:27:00;;;;;;;11.57;8.00;;;;;;;8.12;100.00;96669.19;5053977;28;20135;-82
2023/05/04 03:29:26;;;;;;;14.43;7.77;;;;;;;8.18;100.00;96661.63;5069437;28;20056;-82
2023/05/04 03:31:53;;;;;;;13.53;8.90;;;;;;;8.07;100.00;96661.69;5068527;28;20031;-82
2023/05/04 03:34:22;;;;;;;12.30;8.30;;;;;;;8.02;100.00;96663.91;5052070;28;20025;-83
2023/05/04 03:36:58;;;;;;;26.77;9.73;;;;;;;8.31;100.00;96658.72;5053029;28;20068;-83
2023/05/04 03:39:24;;;;;;;14.00;8.60;;;;;;;8.03;100.00;96661.13;5068070;28;20040;-83
2023/05/04 03:41:56;;;;;;;13.30;9.20;;;;;;;7.88;100.00;96666.84;5069439;28;20040;-83
2023/05/04 03:44:22;;;;;;;15.37;9.03;;;;;;;7.91;100.00;96669.22;5052464;28;20033;-82
2023/05/04 03:46:47;;;;;;;14.67;9.37;;;;;;;7.72;100.00;96662.94;5069274;28;20257;-83
2023/05/04 03:49:13;;;;;;;14.77;9.60;;;;;;;7.67;100.00;96665.13;5047445;28;20024;-83
2023/05/04 03:51:39;;;;;;;15.00;9.27;;;;;;;7.78;100.00;96669.47;5046066;28;20037;-83
2023/05/04 03:54:09;;;;;;;14.17;9.23;;;;;;;7.87;100.00;96665.22;5069526;28;20031;-83
2023/05/04 03:56:35;;;;;;;14.13;9.80;;;;;;;7.72;100.00;96665.56;5049552;28;20039;-83
2023/05/04 03:59:00;;;;;;;12.80;9.13;;;;;;;7.92;100.00;96676.97;5066437;28;20406;-81
2023/05/04 04:01:51;;;;;;;19.63;10.03;;;;;;;7.78;100.00;96664.22;5061823;28;20039;-83
2023/05/04 04:04:16;;;;;;;12.63;8.73;;;;;;;7.62;100.00;96666.50;5072207;28;20032;-83
2023/05/04 04:06:42;;;;;;;13.07;8.33;;;;;;;7.89;100.00;96658.88;5052190;28;20405;-83
2023/05/04 04:09:08;;;;;;;14.63;9.10;;;;;;;7.90;100.00;96675.41;5077760;28;20034;-84
2023/05/04 04:11:33;;;;;;;13.33;9.70;;;;;;;7.80;100.00;96673.59;5052334;28;20090;-82
2023/05/04 04:14:04;;;;;;;13.73;9.77;;;;;;;7.86;100.00;96668.78;5052960;28;20028;-82
2023/05/04 04:16:30;;;;;;;17.77;10.37;;;;;;;7.59;100.00;96671.97;5075202;28;20037;-82
2023/05/04 04:19:00;;;;;;;13.77;9.67;;;;;;;7.70;100.00;96669.28;5058538;28;20037;-83
2023/05/04 04:21:26;;;;;;;15.70;9.60;;;;;;;7.66;100.00;96665.25;5069974;28;20033;-82
2023/05/04 04:23:53;;;;;;;17.67;10.10;;;;;;;7.52;100.00;96669.06;5055042;28;20042;-83
2023/05/04 04:26:19;;;;;;;15.10;10.27;;;;;;;7.67;100.00;96669.53;5070661;28;20032;-82
2023/05/04 04:28:49;;;;;;;15.60;9.33;;;;;;;7.76;100.00;96674.81;5060413;28;20123;-84
2023/05/04 04:31:19;;;;;;;17.10;11.07;;;;;;;7.72;100.00;96673.44;5051497;28;20028;-84
2023/05/04 04:33:46;;;;;;;13.47;10.07;;;;;;;7.72;100.00;96670.81;5073448;28;20025;-84
2023/05/04 04:36:26;;;;;;;12.83;9.93;;;;;;;7.69;100.00;96671.06;5070739;28;20032;-84
2023/05/04 04:38:51;;;;;;;14.30;9.07;;;;;;;7.88;100.00;96674.72;5078507;28;20059;-84
2023/05/04 04:41:17;;;;;;;20.40;11.70;;;;;;;8.08;100.00;96662.53;5043065;28;20566;-84
2023/05/04 04:43:45;;;;;;;20.20;11.37;;;;;;;7.98;100.00;96660.72;5062740;28;20029;-84
2023/05/04 04:46:10;;;;;;;15.80;10.07;;;;;;;8.11;100.00;96664.88;5065550;28;20352;-84
2023/05/04 04:48:36;;;;;;;17.03;11.13;;;;;;;8.26;100.00;96661.75;5070014;28;20047;-84
2023/05/04 04:51:01;;;;;;;17.13;10.20;;;;;;;8.34;100.00;96665.50;5073629;28;20761;-84
2023/05/04 04:53:27;;;;;;;15.00;10.33;;;;;;;8.30;100.00;96671.97;5048175;28;20056;-84
2023/05/04 04:55:53;;;;;;;16.83;10.93;;;;;;;8.53;100.00;96665.56;5059359;28;20040;-84
2023/05/04 04:58:19;;;;;;;16.73;11.13;;;;;;;8.70;100.00;96662.25;5064996;28;20036;-84
2023/05/04 05:01:02;;;;;;;15.07;10.20;;;;;;;8.92;100.00;96657.69;5060469;28;20048;-84
2023/05/04 05:03:28;;;;;;;19.50;11.85;;;;;;;9.11;100.00;96662.94;5074761;28;20029;-84
2023/05/04 05:05:54;;;;;;;14.20;10.80;;;;;;;9.28;100.00;96658.78;5072466;28;20398;-84
2023/05/04 05:08:21;;;;;;;16.50;10.70;;;;;;;9.58;100.00;96651.66;5077386;28;20043;-84
2023/05/04 05:10:47;;;;;;;16.77;10.73;;;;;;;9.66;100.00;96651.81;5077174;28;20505;-83
2023/05/04 05:13:12;;;;;;;16.93;11.37;;;;;;;9.75;100.00;96645.66;5089221;28;20037;-84
2023/05/04 05:15:38;;;;;;;13.73;10.03;;;;;;;9.69;100.00;96654.13;5069690;28;20028;-84
2023/05/04 05:18:04;;;;;;;16.70;11.20;;;;;;;9.60;100.00;96647.13;5082743;28;20036;-84
2023/05/04 05:20:29;;;;;;;16.47;11.17;;;;;;;9.94;100.00;96654.47;5074605;28;20116;-85
2023/05/04 05:22:57;;;;;;;16.67;11.60;;;;;;;10.48;100.00;96640.50;5062446;28;20037;-83
2023/05/04 05:25:23;;;;;;;16.93;12.07;;;;;;;10.49;100.00;96650.03;5046839;28;20060;-83
2023/05/04 05:27:48;;;;;;;16.87;12.47;;;;;;;10.52;100.00;96644.47;5060579;28;20025;-83
2023/05/04 05:30:14;;;;;;;15.57;10.80;;;;;;;10.93;100.00;96637.00;5047739;28;20037;-83
2023/05/04 05:32:40;;;;;;;15.80;10.50;;;;;;;10.80;100.00;96637.38;5053063;28;20025;-83
2023/05/04 05:35:06;;;;;;;16.43;11.50;;;;;;;11.04;100.00;96636.75;5070278;28;20094;-83
2023/05/04 05:37:54;;;;;;;16.93;11.90;;;;;;;10.96;100.00;96641.09;5072520;28;20413;-83
2023/05/04 05:40:21;;;;;;;18.93;11.70;;;;;;;11.18;100.00;96638.00;5065215;28;20047;-83
2023/05/04 05:42:47;;;;;;;16.13;12.90;;;;;;;11.47;100.00;96637.72;5062407;28;20067;-83
2023/05/04 05:45:13;;;;;;;16.47;12.43;;;;;;;11.67;100.00;96642.75;5062926;28;20028;-83
2023/05/04 05:47:38;;;;;;;15.97;12.17;;;;;;;12.01;100.00;96637.56;5071842;28;20334;-83
2023/05/04 05:50:05;;;;;;;17.37;12.60;;;;;;;12.37;100.00;96638.16;5054348;28;20430;-83
2023/05/04 05:52:31;;;;;;;18.83;12.50;;;;;;;12.88;100.00;96636.28;5064251;28;20059;-82
2023/05/04 05:54:56;;;;;;;15.90;11.30;;;;;;;12.25;100.00;96644.72;5062237;28;20484;-81
2023/05/04 05:57:22;;;;;;;16.47;11.90;;;;;;;12.78;100.00;96635.63;5070756;28;20118;-81
2023/05/04 05:59:47;;;;;;;15.97;11.47;;;;;;;12.79;100.00;96637.28;5051466;28;20449;-82
2023/05/04 06:02:13;;;;;;;18.03;12.23;;;;;;;13.17;100.00;96640.25;5050901;28;20037;-84
2023/05/04 06:04:43;;;;;;;14.60;10.80;;;;;;;13.41;100.00;96632.38;5053660;28;20052;-83
2023/05/04 06:07:09;;;;;;;16.10;10.77;;;;;;;13.73;100.00;96630.66;5068685;28;20039;-82
2023/05/04 06:09:35;;;;;;;15.60;11.43;;;;;;;13.57;100.00;96631.50;5070309;28;20564;-82
2023/05/04 06:12:03;;;;;;;16.83;11.43;;;;;;;13.99;100.00;96637.53;5073290;28;20068;-83
2023/05/04 06:14:29;;;;;;;15.73;11.70;;;;;;;14.18;100.00;96634.44;5048833;28;20036;-82
2023/05/04 06:16:55;;;;;;;15.80;12.10;;;;;;;13.82;100.00;96640.22;5064407;28;20033;-82
2023/05/04 06:19:21;;;;;;;19.53;12.47;;;;;;;13.36;100.00;96637.31;5069457;28;20032;-82
2023/05/04 06:21:51;;;;;;;13.63;11.17;;;;;;;13.18;100.00;96649.84;5052353;28;20505;-82
2023/05/04 06:24:17;;;;;;;14.80;11.27;;;;;;;13.32;100.00;96625.44;5042305;28;20036;-82
2023/05/04 06:26:53;;;;;;;16.10;11.67;;;;;;;13.67;100.00;96626.84;5051308;28;20402;-83
2023/05/04 06:29:19;;;;;;;14.13;11.60;;;;;;;13.23;100.00;96634.31;5069966;28;20044;-82
2023/05/04 06:31:46;;;;;;;13.80;10.83;;;;;;;13.24;100.00;96630.69;5059095;28;20086;-82
2023/05/04 06:34:17;;;;;;;17.97;11.83;;;;;;;13.70;100.00;96628.34;5049435;28;20052;-80
2023/05/04 06:36:48;;;;;;;13.93;9.63;;;;;;;13.43;100.00;96624.25;5064653;28;20044;-80
2023/05/04 06:39:29;;;;;;;14.83;10.03;;;;;;;13.86;100.00;96627.47;5053506;28;20029;-82
2023/05/04 06:41:55;;;;;;;14.73;10.40;;;;;;;13.90;100.00;96629.59;5071102;28;20149;-81
2023/05/04 06:44:43;;;;;;;14.97;9.87;;;;;;;13.79;100.00;96618.56;5052329;28;20037;-84
2023/05/04 06:47:17;;;;;;;14.73;9.87;;;;;;;14.13;100.00;96615.63;5068912;28;20090;-81
2023/05/04 06:49:42;;;;;;;14.13;9.70;;;;;;;14.38;100.00;96614.53;5048313;28;20043;-81
2023/05/04 06:52:08;;;;;;;13.60;9.73;;;;;;;14.26;100.00;96621.19;5066205;28;20040;-82
2023/05/04 06:54:34;;;;;;;14.10;9.80;;;;;;;14.19;100.00;96620.25;5074731;28;20100;-82
2023/05/04 06:57:02;;;;;;;12.97;8.73;;;;;;;14.39;100.00;96613.53;5059017;28;20040;-82
2023/05/04 06:59:35;;;;;;;16.67;9.83;;;;;;;14.74;100.00;96611.34;5047389;28;20037;-81
2023/05/04 07:02:03;;;;;;;12.67;9.50;;;;;;;14.98;100.00;96609.53;5064211;28;20065;-82
2023/05/04 07:04:39;;;;;;;13.20;9.33;;;;;;;15.52;100.00;96612.03;5065160;28;20086;-82
2023/05/04 07:07:06;;;;;;;12.33;8.50;;;;;;;15.96;100.00;96604.16;5049388;28;20431;-81
2023/05/04 07:09:32;;;;;;;12.40;8.83;;;;;;;15.34;100.00;96609.72;5046713;28;20525;-82
2023/05/04 07:11:58;;;;;;;10.43;8.27;;;;;;;16.10;100.00;96610.44;5069847;28;20036;-82
2023/05/04 07:14:24;;;;;;;10.87;7.93;;;;;;;17.13;100.00;96605.84;5069295;28;20039;-82
2023/05/04 07:16:49;;;;;;;11.63;7.83;;;;;;;16.86;100.00;96616.22;5065362;28;20029;-82
2023/05/04 07:19:15;;;;;;;21.53;9.50;;;;;;;17.11;100.00;96614.03;5057892;28;21633;-83
2023/05/04 07:21:41;;;;;;;10.57;8.03;;;;;;;17.00;100.00;96603.91;5063617;28;20036;-81
2023/05/04 07:24:16;;;;;;;11.47;7.70;;;;;;;16.85;100.00;96603.16;5069149;28;20060;-81
2023/05/04 07:26:42;;;;;;;10.83;7.57;;;;;;;17.30;100.00;96611.72;5052092;28;20415;-82
2023/05/04 07:29:08;;;;;;;9.53;6.93;;;;;;;17.48;100.00;96609.41;5069181;28;20063;-82
2023/05/04 07:31:35;;;;;;;12.63;8.98;;;;;;;18.03;100.00;96602.41;5046002;28;20478;-81
2023/05/04 07:34:00;;;;;;;11.38;7.35;;;;;;;18.06;100.00;96612.69;5052383;28;20118;-82
2023/05/04 07:36:26;;;;;;;9.40;7.10;;;;;;;17.93;100.00;96604.63;5068391;28;20040;-81
2023/05/04 07:39:06;;;;;;;9.65;6.88;;;;;;;17.48;100.00;96597.97;5052410;28;20098;-81
2023/05/04 07:41:32;;;;;;;10.27;7.40;;;;;;;18.50;100.00;96594.63;5068592;28;20090;-81
2023/05/04 07:43:57;;;;;;;10.93;7.47;;;;;;;18.79;100.00;96590.84;5052236;28;20659;-82
2023/05/04 07:46:23;;;;;;;14.05;7.30;;;;;;;17.95;100.00;96585.81;5063949;28;20178;-81
2023/05/04 07:48:48;;;;;;;7.68;6.10;;;;;;;18.24;100.00;96595.34;5053049;28;20032;-81
2023/05/04 07:51:15;;;;;;;15.30;7.60;;;;;;;18.55;100.00;96601.00;5071944;28;20768;-82
2023/05/04 07:53:42;;;;;;;11.07;7.03;;;;;;;19.11;100.00;96599.91;5041367;28;20037;-81
2023/05/04 07:56:11;;;;;;;9.95;6.60;;;;;;;17.73;100.00;96601.00;5048383;28;20047;-81
2023/05/04 07:58:49;;;;;;;8.65;6.40;;;;;;;19.04;100.00;96597.22;5048281;28;20420;-81
2023/05/04 08:01:15;;;;;;;8.18;6.28;;;;;;;19.50;99.04;96599.09;5059212;28;20116;-81
2023/05/04 08:03:40;;;;;;;8.07;5.95;;;;;;;20.03;96.02;96592.88;5048441;28;20033;-81
2023/05/04 08:06:07;;;;;;;10.82;7.20;;;;;;;20.11;95.04;96597.97;5047903;28;20028;-81
2023/05/04 08:08:32;;;;;;;9.45;6.72;;;;;;;18.80;99.46;96597.81;5049987;28;20031;-81
2023/05/04 08:10:58;;;;;;;8.40;6.22;;;;;;;19.48;98.66;96593.16;5050694;28;20398;-81
2023/05/04 08:13:23;;;;;;;10.15;6.47;;;;;;;19.81;97.56;96600.31;5068637;28;20032;-82
2023/05/04 08:15:49;;;;;;;7.75;5.47;;;;;;;20.81;88.43;96592.75;5047040;28;20190;-83
2023/05/04 08:18:15;;;;;;;8.20;5.78;;;;;;;18.98;96.18;96600.72;5068888;28;20036;-82
2023/05/04 08:20:40;;;;;;;7.43;5.63;;;;;;;18.10;96.68;96615.75;5056150;28;20474;-82
2023/05/04 08:23:06;;;;;;;10.25;5.75;;;;;;;18.69;94.05;96614.38;5067596;28;20073;-82
2023/05/04 08:25:32;;;;;;;13.63;5.75;;;;;;;19.59;91.27;96604.22;5071022;28;20418;-82
2023/05/04 08:27:57;;;;;;;10.85;5.55;;;;;;;19.93;86.98;96614.66;5075252;28;20039;-82
2023/05/04 08:30:28;;;;;;;10.20;5.63;;;;;;;19.00;93.46;96611.19;5045726;28;20021;-82
2023/05/04 08:32:56;;;;;;;9.20;5.70;;;;;;;19.01;91.41;96604.81;5066017;28;20028;-82
2023/05/04 08:35:26;;;;;;;8.95;5.38;;;;;;;19.02;87.42;96612.63;5052413;28;20025;-82
2023/05/04 08:38:23;;;;;;;9.35;5.25;;;;;;;19.72;87.17;96606.91;5056250;28;20057;-82
2023/05/04 08:41:22;;;;;;;9.05;5.72;;;;;;;19.37;87.97;96599.09;5074281;28;20070;-82
2023/05/04 08:43:49;;;;;;;7.43;4.85;;;;;;;19.45;84.87;96609.56;5083159;28;20033;-82
2023/05/04 08:46:15;;;;;;;8.15;5.00;;;;;;;20.69;79.82;96607.81;5074370;28;20028;-82
2023/05/04 08:48:43;;;;;;;6.40;4.60;;;;;;;19.54;76.33;96594.97;5052557;28;20028;-82
2023/05/04 08:51:10;;;;;;;7.40;4.45;;;;;;;19.78;78.81;96592.72;5054163;28;20034;-82
2023/05/04 08:53:39;;;;;;;8.32;5.15;;;;;;;20.37;78.59;96597.06;5070208;28;20032;-82
2023/05/04 08:56:11;;;;;;;8.75;4.95;;;;;;;19.99;83.37;96587.16;5071889;28;20604;-82
2023/05/04 08:58:51;;;;;;;6.68;4.68;;;;;;;20.12;77.53;96590.78;5050227;28;20051;-81
2023/05/04 09:01:20;;;;;;;8.73;4.70;;;;;;;19.76;78.25;96586.78;5075697;28;20043;-83
2023/05/04 09:03:47;;;;;;;8.68;6.22;;;;;;;20.78;84.59;96592.38;5052884;28;20037;-80
2023/05/04 09:06:14;;;;;;;7.97;5.15;;;;;;;21.95;75.55;96590.00;5061858;28;20032;-80
2023/05/04 09:08:40;;;;;;;6.82;4.80;;;;;;;20.37;74.00;96597.06;5054751;28;20502;-80
2023/05/04 09:11:07;;;;;;;8.82;4.97;;;;;;;19.98;72.97;96585.47;5073638;28;20094;-79
2023/05/04 09:13:33;;;;;;;7.15;5.25;;;;;;;20.22;79.40;96589.31;5059391;28;20051;-81
2023/05/04 09:15:58;;;;;;;7.80;5.03;;;;;;;20.35;74.75;96580.41;5054400;28;20036;-81
2023/05/04 09:18:44;;;;;;;8.73;4.55;;;;;;;20.01;68.45;96590.41;5057535;28;20040;-81
2023/05/04 09:21:11;;;;;;;7.68;4.43;;;;;;;20.35;73.17;96591.09;5062909;28;20040;-81
2023/05/04 09:23:52;;;;;;;8.00;5.13;;;;;;;21.08;71.51;96577.34;5067387;28;20070;-80
2023/05/04 09:26:36;;;;;;;8.23;5.05;;;;;;;21.00;64.37;96571.47;5038589;28;20029;-80
2023/05/04 09:29:12;;;;;;;7.60;4.70;;;;;;;21.21;65.49;96575.63;5071634;28;20449;-80
2023/05/04 09:31:47;;;;;;;7.85;4.53;;;;;;;20.92;65.55;96581.41;5051392;28;20433;-81
2023/05/04 09:34:13;;;;;;;7.03;4.57;;;;;;;20.83;65.70;96577.34;5059889;28;20037;-81
2023/05/04 09:36:40;;;;;;;6.93;4.75;;;;;;;22.38;58.46;96565.03;5068322;28;20036;-81
2023/05/04 09:39:18;;;;;;;6.93;4.68;;;;;;;22.16;58.52;96552.06;5063164;28;20359;-81
2023/05/04 09:41:43;;;;;;;7.25;4.53;;;;;;;22.65;58.52;96557.44;5062574;28;20494;-81
2023/05/04 09:44:23;;;;;;;6.93;4.53;;;;;;;22.22;57.29;96561.09;5065997;28;20040;-81
2023/05/04 09:46:59;;;;;;;6.93;4.30;;;;;;;21.20;59.93;96561.44;5045228;28;20048;-81
2023/05/04 09:49:37;;;;;;;8.07;5.20;;;;;;;22.27;54.71;96564.75;5065033;28;20040;-81
2023/05/04 09:52:05;;;;;;;8.38;4.10;;;;;;;22.41;56.58;96545.81;5052940;28;20028;-81
2023/05/04 09:54:40;;;;;;;6.55;4.15;;;;;;;21.95;58.75;96552.50;5050067;28;20052;-81
2023/05/04 09:57:11;;;;;;;6.90;3.58;;;;;;;22.87;51.81;96544.31;5064089;28;20033;-81
2023/05/04 09:59:38;;;;;;;6.80;4.65;;;;;;;22.58;52.97;96539.59;5051432;28;20040;-81
2023/05/04 10:02:10;;;;;;;8.10;4.97;;;;;;;21.60;54.57;96547.75;5057727;28;20052;-81
2023/05/04 10:04:38;;;;;;;5.93;3.67;;;;;;;23.16;50.56;96530.06;5051095;28;20026;-82
2023/05/04 10:07:05;;;;;;;5.97;4.30;;;;;;;22.28;54.29;96542.25;5052279;28;20063;-81
2023/05/04 10:09:34;;;;;;;6.38;4.40;;;;;;;22.50;53.42;96534.56;5069506;28;20120;-81
2023/05/04 10:12:01;;;;;;;6.22;4.22;;;;;;;22.45;51.30;96537.09;5069765;28;20111;-81
2023/05/04 10:14:35;;;;;;;7.90;4.50;;;;;;;22.70;52.99;96528.06;5067179;28;20029;-81
2023/05/04 10:17:13;;;;;;;6.57;4.05;;;;;;;23.19;50.39;96534.16;5092680;28;20067;-82
2023/05/04 10:20:03;;;;;;;5.60;3.55;;;;;;;22.43;45.89;96531.13;5054594;28;20504;-82
2023/05/04 10:22:48;;;;;;;7.82;4.10;;;;;;;22.24;51.21;96535.72;5080265;28;20584;-82
2023/05/04 10:25:46;;;;;;;6.80;4.22;;;;;;;21.83;49.79;96529.16;5067861;28;21008;-82
2023/05/04 10:31:10;;;;;;;7.28;4.22;;;;;;;22.56;46.32;96524.78;5028674;28;20482;-82
2023/05/04 10:33:38;;;;;;;5.68;3.88;;;;;;;21.05;46.55;96521.63;5054187;28;20047;-81
2023/05/04 10:36:04;;;;;;;7.30;4.65;;;;;;;21.38;51.12;96504.50;5054249;28;20028;-81
2023/05/04 10:38:34;;;;;;;7.90;4.53;;;;;;;22.04;52.33;96511.81;5051677;28;20029;-82
2023/05/04 10:41:28;;;;;;;14.95;4.82;;;;;;;22.82;52.66;96502.94;5068664;28;20033;-82
2023/05/04 10:44:04;;;;;;;7.97;4.57;;;;;;;22.87;47.41;96509.47;5066038;28;20041;-82
2023/05/04 10:46:32;;;;;;;9.20;4.65;;;;;;;22.89;48.43;96513.56;5045974;28;20033;-82
2023/05/04 10:48:58;;;;;;;7.13;4.45;;;;;;;22.28;49.10;96504.75;5051795;28;20051;-82
2023/05/04 10:52:17;;;;;;;13.25;5.22;;;;;;;23.44;49.06;96504.41;5058097;28;20039;-82
2023/05/04 10:54:43;;;;;;;6.35;3.92;;;;;;;23.46;45.19;96510.38;5057851;28;20042;-82
2023/05/04 10:57:12;;;;;;;6.45;3.72;;;;;;;23.26;43.26;96505.34;5077759;28;20033;-82
2023/05/04 10:59:39;;;;;;;6.53;3.85;;;;;;;22.78;41.32;96499.09;5058560;28;20032;-82
2023/05/04 11:02:07;;;;;;;7.75;4.85;;;;;;;22.22;45.04;96489.56;5068833;28;20032;-82
2023/05/04 11:04:33;;;;;;;8.50;3.92;;;;;;;23.22;43.90;96482.72;5067807;28;20036;-81
2023/05/04 11:07:05;;;;;;;5.82;3.65;;;;;;;22.85;43.84;96496.31;5070550;28;20156;-80
2023/05/04 11:09:38;;;;;;;6.90;3.85;;;;;;;22.02;44.21;96489.78;5073939;28;20037;-82
2023/05/04 11:12:05;;;;;;;9.13;4.10;;;;;;;22.74;45.15;96481.84;5052258;28;20037;-82
2023/05/04 11:14:41;;;;;;;5.78;3.70;;;;;;;22.41;41.60;96476.97;5067402;28;20032;-81
2023/05/04 11:17:18;;;;;;;11.95;5.43;;;;;;;22.57;43.66;96480.84;5062453;28;20032;-82
2023/05/04 11:19:48;;;;;;;6.75;3.67;;;;;;;23.20;45.14;96474.09;5057057;28;20038;-82
2023/05/04 11:22:15;;;;;;;8.20;3.97;;;;;;;22.66;42.47;96468.75;5047569;28;20025;-81
2023/05/04 11:24:42;;;;;;;8.45;4.13;;;;;;;21.88;43.52;96482.97;5054992;28;20108;-82
2023/05/04 11:27:27;;;;;;;8.13;4.25;;;;;;;22.87;44.15;96467.41;5061072;28;20040;-82
2023/05/04 11:30:01;;;;;;;7.55;4.35;;;;;;;21.76;51.46;96472.19;5057859;28;20037;-82
2023/05/04 11:32:56;;;;;;;7.03;4.32;;;;;;;22.73;41.93;96468.63;5048313;28;20051;-82
2023/05/04 11:35:26;;;;;;;7.60;4.32;;;;;;;22.76;50.25;96458.25;5037803;28;20040;-82